createdAt,value
2018-07-27T00:01:32.669Z,19.40
2018-07-27T00:06:29.908Z,19.40
2018-07-27T00:08:58.670Z,19.40
2018-07-27T00:11:28.393Z,19.50
2018-07-27T00:13:58.194Z,19.50
2018-07-27T00:16:26.892Z,19.60
2018-07-27T00:18:55.708Z,19.70
2018-07-27T00:21:24.351Z,19.70
2018-07-27T00:23:53.890Z,19.60
2018-07-27T00:26:22.757Z,19.60
2018-07-27T00:28:52.599Z,19.60
2018-07-27T00:31:21.281Z,19.40
2018-07-27T00:33:50.049Z,19.30
2018-07-27T00:36:18.810Z,19.30
2018-07-27T00:38:47.566Z,19.30
2018-07-27T00:41:16.237Z,19.30
2018-07-27T00:43:44.863Z,19.40
2018-07-27T00:46:13.577Z,19.30
2018-07-27T00:48:43.307Z,19.20
2018-07-27T00:51:12.718Z,19.20
2018-07-27T00:53:42.387Z,19.20
2018-07-27T00:56:11.111Z,19.20
2018-07-27T00:58:39.783Z,19.20
2018-07-27T01:01:08.701Z,19.10
2018-07-27T01:03:37.401Z,19.10
2018-07-27T01:06:06.072Z,19.00
2018-07-27T01:08:34.768Z,18.80
2018-07-27T01:11:04.910Z,18.80
2018-07-27T01:13:34.057Z,19.00
2018-07-27T01:16:03.344Z,19.00
2018-07-27T01:18:32.128Z,19.00
2018-07-27T01:21:00.856Z,19.00
2018-07-27T01:23:29.643Z,19.00
2018-07-27T01:25:58.374Z,19.00
2018-07-27T01:28:27.176Z,18.80
2018-07-27T01:30:58.455Z,18.70
2018-07-27T01:33:27.219Z,18.50
2018-07-27T01:35:55.928Z,18.50
2018-07-27T01:38:24.560Z,18.40
2018-07-27T01:40:53.291Z,18.40
2018-07-27T01:43:21.909Z,18.30
2018-07-27T01:45:51.669Z,18.30
2018-07-27T01:48:20.411Z,18.20
2018-07-27T01:53:17.474Z,18.30
2018-07-27T01:55:46.205Z,18.20
2018-07-27T01:58:14.960Z,18.30
2018-07-27T02:03:13.083Z,18.20
2018-07-27T02:05:41.967Z,18.20
2018-07-27T02:08:11.431Z,18.10
2018-07-27T02:10:40.173Z,18.00
2018-07-27T02:13:09.613Z,17.90
2018-07-27T02:15:38.288Z,17.80
2018-07-27T02:18:07.079Z,17.80
2018-07-27T02:20:37.890Z,17.80
2018-07-27T02:23:06.533Z,17.70
2018-07-27T02:25:36.386Z,17.60
2018-07-27T02:28:05.113Z,17.60
2018-07-27T02:30:33.857Z,17.50
2018-07-27T02:33:02.609Z,17.60
2018-07-27T02:35:31.434Z,17.70
2018-07-27T02:38:00.878Z,17.70
2018-07-27T02:40:29.666Z,17.80
2018-07-27T02:45:26.759Z,17.70
2018-07-27T02:47:55.491Z,17.70
2018-07-27T02:50:24.211Z,17.70
2018-07-27T02:52:53.906Z,17.60
2018-07-27T02:55:22.574Z,17.60
2018-07-27T02:57:51.398Z,17.60
2018-07-27T03:00:20.108Z,17.70
2018-07-27T03:02:48.914Z,17.80
2018-07-27T03:05:17.625Z,17.80
2018-07-27T03:07:46.435Z,17.70
2018-07-27T03:10:15.221Z,17.60
2018-07-27T03:12:44.148Z,17.70
2018-07-27T03:15:12.970Z,17.80
2018-07-27T03:17:41.642Z,17.80
2018-07-27T03:20:10.894Z,17.60
2018-07-27T03:22:40.184Z,17.60
2018-07-27T03:25:09.927Z,17.60
2018-07-27T03:27:38.603Z,17.60
2018-07-27T03:30:07.705Z,17.70
2018-07-27T03:32:36.597Z,17.70
2018-07-27T03:35:05.266Z,17.60
2018-07-27T03:37:34.052Z,17.50
2018-07-27T03:40:02.991Z,17.50
2018-07-27T03:42:31.701Z,17.50
2018-07-27T03:45:01.120Z,17.40
2018-07-27T03:47:29.933Z,17.40
2018-07-27T03:49:58.655Z,17.40
2018-07-27T03:52:27.461Z,17.50
2018-07-27T03:54:56.394Z,17.50
2018-07-27T03:57:25.232Z,17.50
2018-07-27T03:59:53.954Z,17.50
2018-07-27T04:02:22.812Z,17.40
2018-07-27T04:04:51.623Z,17.50
2018-07-27T04:07:20.377Z,17.50
2018-07-27T04:09:50.165Z,17.40
2018-07-27T04:12:22.538Z,17.50
2018-07-27T04:14:54.926Z,17.60
2018-07-27T04:17:23.674Z,17.90
2018-07-27T04:24:51.729Z,18.80
2018-07-27T04:27:20.601Z,19.00
2018-07-27T04:29:49.245Z,19.30
2018-07-27T04:32:18.956Z,19.70
2018-07-27T04:34:48.681Z,20.10
2018-07-27T04:37:17.443Z,20.50
2018-07-27T04:39:46.231Z,20.60
2018-07-27T04:42:14.906Z,20.70
2018-07-27T04:44:43.605Z,21.00
2018-07-27T04:47:12.352Z,21.20
2018-07-27T04:49:41.069Z,21.40
2018-07-27T04:52:09.897Z,21.60
2018-07-27T04:54:38.575Z,21.80
2018-07-27T04:57:07.261Z,22.20
2018-07-27T04:59:37.122Z,22.10
2018-07-27T05:02:06.066Z,22.40
2018-07-27T05:04:34.819Z,22.30
2018-07-27T05:07:03.580Z,22.30
2018-07-27T05:09:33.416Z,22.70
2018-07-27T05:12:02.077Z,22.90
2018-07-27T05:14:30.778Z,23.40
2018-07-27T05:16:59.489Z,23.70
2018-07-27T05:19:29.251Z,24.00
2018-07-27T05:21:57.960Z,24.00
2018-07-27T05:24:26.831Z,24.10
2018-07-27T05:26:56.072Z,24.20
2018-07-27T05:29:24.680Z,24.10
2018-07-27T05:31:53.510Z,23.60
2018-07-27T05:34:22.343Z,23.50
2018-07-27T05:36:52.052Z,23.20
2018-07-27T05:39:29.590Z,22.80
2018-07-27T05:42:08.010Z,22.70
2018-07-27T05:44:39.226Z,22.20
2018-07-27T05:47:18.577Z,22.00
2018-07-27T05:52:51.451Z,21.50
2018-07-27T05:55:37.039Z,21.40
2018-07-27T05:58:05.886Z,21.30
2018-07-27T06:03:30.842Z,20.90
2018-07-27T06:05:59.542Z,20.70
2018-07-27T06:08:28.314Z,20.60
2018-07-27T06:10:57.445Z,20.60
2018-07-27T06:13:27.813Z,20.60
2018-07-27T06:15:56.542Z,20.70
2018-07-27T06:18:25.241Z,20.80
2018-07-27T06:20:54.069Z,20.90
2018-07-27T06:23:22.742Z,21.00
2018-07-27T06:25:51.595Z,21.10
2018-07-27T06:28:21.346Z,21.20
2018-07-27T06:30:50.200Z,21.60
2018-07-27T06:33:19.000Z,21.90
2018-07-27T06:35:47.918Z,21.90
2018-07-27T06:38:16.735Z,22.30
2018-07-27T06:40:46.187Z,22.90
2018-07-27T06:43:14.830Z,23.60
2018-07-27T06:45:43.734Z,23.90
2018-07-27T06:51:06.779Z,24.80
2018-07-27T06:53:35.729Z,25.10
2018-07-27T06:56:04.472Z,25.10
2018-07-27T06:58:34.810Z,25.30
2018-07-27T07:01:03.497Z,25.70
2018-07-27T07:03:32.219Z,25.50
2018-07-27T07:06:00.926Z,26.20
2018-07-27T07:08:30.515Z,26.10
2018-07-27T07:11:00.704Z,25.60
2018-07-27T07:13:29.421Z,25.20
2018-07-27T07:15:58.241Z,24.80
2018-07-27T07:18:27.042Z,25.30
2018-07-27T07:20:55.770Z,25.60
2018-07-27T07:23:25.227Z,25.80
2018-07-27T07:25:54.132Z,25.10
2018-07-27T07:28:22.730Z,24.40
2018-07-27T07:30:51.501Z,24.60
2018-07-27T07:33:20.364Z,24.50
2018-07-27T07:35:49.106Z,24.90
2018-07-27T07:38:17.917Z,25.10
2018-07-27T07:40:46.596Z,24.70
2018-07-27T07:43:15.352Z,24.10
2018-07-27T07:45:45.164Z,24.20
2018-07-27T07:48:14.327Z,23.40
2018-07-27T07:50:43.079Z,23.70
2018-07-27T07:53:12.995Z,23.50
2018-07-27T07:55:41.674Z,23.20
2018-07-27T07:58:10.388Z,23.00
2018-07-27T08:00:39.062Z,23.00
2018-07-27T08:03:07.826Z,23.10
2018-07-27T08:05:38.639Z,22.90
2018-07-27T08:08:07.356Z,23.20
2018-07-27T08:10:36.057Z,23.40
2018-07-27T08:13:05.750Z,23.60
2018-07-27T08:15:34.443Z,23.80
2018-07-27T08:18:03.234Z,24.60
2018-07-27T08:20:32.386Z,24.20
2018-07-27T08:23:01.096Z,24.80
2018-07-27T08:25:45.992Z,24.40
2018-07-27T08:28:26.930Z,24.40
2018-07-27T08:30:55.589Z,24.80
2018-07-27T08:33:24.263Z,24.70
2018-07-27T08:35:53.580Z,24.40
2018-07-27T08:38:22.351Z,24.80
2018-07-27T08:40:50.996Z,24.60
2018-07-27T08:43:19.823Z,25.00
2018-07-27T08:45:49.498Z,25.00
2018-07-27T08:48:18.253Z,25.60
2018-07-27T08:50:47.011Z,26.10
2018-07-27T08:53:15.764Z,25.70
2018-07-27T08:55:44.465Z,25.50
2018-07-27T08:58:13.332Z,25.60
2018-07-27T09:00:52.712Z,26.00
2018-07-27T09:03:21.513Z,26.00
2018-07-27T09:05:51.123Z,26.00
2018-07-27T09:08:20.893Z,25.30
2018-07-27T09:10:49.669Z,25.60
2018-07-27T09:15:48.801Z,26.00
2018-07-27T09:20:45.959Z,25.90
2018-07-27T09:23:14.650Z,25.80
2018-07-27T09:25:44.651Z,25.90
2018-07-27T09:28:13.498Z,26.20
2018-07-27T09:30:42.261Z,26.50
2018-07-27T09:35:39.327Z,26.10
2018-07-27T09:38:08.029Z,25.90
2018-07-27T09:40:36.822Z,25.80
2018-07-27T09:43:05.572Z,25.70
2018-07-27T09:45:34.260Z,25.80
2018-07-27T09:48:03.013Z,25.80
2018-07-27T09:50:31.809Z,25.70
2018-07-27T09:53:00.513Z,25.60
2018-07-27T09:55:29.549Z,25.90
2018-07-27T09:57:58.686Z,25.80
2018-07-27T10:00:36.533Z,26.00
2018-07-27T10:03:06.267Z,26.40
2018-07-27T10:05:35.956Z,26.80
2018-07-27T10:08:04.884Z,27.00
2018-07-27T10:10:33.673Z,26.50
2018-07-27T10:13:03.562Z,26.40
2018-07-27T10:15:33.274Z,27.10
2018-07-27T10:18:02.068Z,26.70
2018-07-27T10:20:30.840Z,26.70
2018-07-27T10:22:59.697Z,27.40
2018-07-27T10:25:32.669Z,27.70
2018-07-27T10:28:01.367Z,27.50
2018-07-27T10:30:30.046Z,27.60
2018-07-27T10:32:58.705Z,27.60
2018-07-27T10:35:27.458Z,27.50
2018-07-27T10:37:56.246Z,27.80
2018-07-27T10:40:24.995Z,28.00
2018-07-27T10:42:53.663Z,27.70
2018-07-27T10:45:22.440Z,28.20
2018-07-27T10:47:51.221Z,28.40
2018-07-27T10:50:21.083Z,28.30
2018-07-27T10:52:49.819Z,28.30
2018-07-27T10:55:18.472Z,28.50
2018-07-27T10:57:47.188Z,28.20
2018-07-27T11:00:16.567Z,28.00
2018-07-27T11:02:45.389Z,28.50
2018-07-27T11:05:15.843Z,28.60
2018-07-27T11:07:44.610Z,29.30
2018-07-27T11:10:13.375Z,29.00
2018-07-27T11:12:42.294Z,28.70
2018-07-27T11:15:15.415Z,28.50
2018-07-27T11:17:45.417Z,28.40
2018-07-27T11:20:15.012Z,28.50
2018-07-27T11:22:43.701Z,28.60
2018-07-27T11:25:12.368Z,28.40
2018-07-27T11:27:41.185Z,28.90
2018-07-27T11:30:09.878Z,29.20
2018-07-27T11:32:38.664Z,29.10
2018-07-27T11:35:07.428Z,28.60
2018-07-27T11:37:36.162Z,28.60
2018-07-27T11:40:05.719Z,28.70
2018-07-27T11:42:34.567Z,28.60
2018-07-27T11:45:03.257Z,28.60
2018-07-27T11:47:32.067Z,29.10
2018-07-27T11:50:01.684Z,28.90
2018-07-27T11:52:30.586Z,29.10
2018-07-27T11:54:59.298Z,29.30
2018-07-27T11:57:28.078Z,29.10
2018-07-27T11:59:56.724Z,28.90
2018-07-27T12:02:25.474Z,29.00
2018-07-27T12:07:22.601Z,29.70
2018-07-27T12:09:51.533Z,29.50
2018-07-27T12:12:20.233Z,29.80
2018-07-27T12:14:49.064Z,29.50
2018-07-27T12:17:17.981Z,29.60
2018-07-27T12:19:46.632Z,29.70
2018-07-27T12:22:15.326Z,29.10
2018-07-27T12:24:44.058Z,29.10
2018-07-27T12:27:12.910Z,29.40
2018-07-27T12:29:41.465Z,29.40
2018-07-27T12:32:10.279Z,29.60
2018-07-27T12:34:38.916Z,29.70
2018-07-27T12:37:08.408Z,29.70
2018-07-27T12:39:37.047Z,29.50
2018-07-27T12:42:05.773Z,29.60
2018-07-27T12:44:37.724Z,29.60
2018-07-27T12:47:06.661Z,30.00
2018-07-27T12:49:35.339Z,30.10
2018-07-27T12:52:04.024Z,30.00
2018-07-27T12:54:32.762Z,29.60
2018-07-27T12:57:02.117Z,30.30
2018-07-27T12:59:31.182Z,30.00
2018-07-27T13:02:00.007Z,30.30
2018-07-27T13:04:28.725Z,30.60
2018-07-27T13:06:57.487Z,30.50
2018-07-27T13:09:26.219Z,30.00
2018-07-27T13:11:54.901Z,30.10
2018-07-27T13:14:23.624Z,30.10
2018-07-27T13:16:52.376Z,30.10
2018-07-27T13:19:21.096Z,29.80
2018-07-27T13:21:49.817Z,29.70
2018-07-27T13:24:19.445Z,29.60
2018-07-27T13:26:48.299Z,29.60
2018-07-27T13:29:17.057Z,29.60
2018-07-27T13:31:49.793Z,29.80
2018-07-27T13:34:43.632Z,30.00
2018-07-27T13:37:14.060Z,29.90
2018-07-27T13:39:49.906Z,29.80
2018-07-27T13:42:20.128Z,29.90
2018-07-27T13:44:49.449Z,30.10
2018-07-27T13:47:18.802Z,30.10
2018-07-27T13:49:47.571Z,30.10
2018-07-27T13:52:20.151Z,30.20
2018-07-27T13:54:49.080Z,30.10
2018-07-27T13:57:17.843Z,30.10
2018-07-27T13:59:46.577Z,29.90
2018-07-27T14:02:16.450Z,30.00
2018-07-27T14:04:46.106Z,29.90
2018-07-27T14:07:15.285Z,30.00
2018-07-27T14:09:44.033Z,29.90
2018-07-27T14:12:12.793Z,30.10
2018-07-27T14:14:42.519Z,30.20
2018-07-27T14:17:12.290Z,30.00
2018-07-27T14:19:42.022Z,30.20
2018-07-27T14:22:10.730Z,30.00
2018-07-27T14:24:39.498Z,30.00
2018-07-27T14:27:08.194Z,30.00
2018-07-27T14:29:36.955Z,30.30
2018-07-27T14:32:05.679Z,30.50
2018-07-27T14:34:34.401Z,30.40
2018-07-27T14:37:04.098Z,30.60
2018-07-27T14:39:32.874Z,30.60
2018-07-27T14:42:02.588Z,30.70
2018-07-27T14:44:31.389Z,30.70
2018-07-27T14:47:00.091Z,30.80
2018-07-27T14:49:28.777Z,30.60
2018-07-27T14:51:57.483Z,30.30
2018-07-27T14:54:26.209Z,30.20
2018-07-27T14:56:54.903Z,30.30
2018-07-27T15:01:52.989Z,30.10
2018-07-27T15:04:21.668Z,30.10
2018-07-27T15:06:50.430Z,30.10
2018-07-27T15:09:19.163Z,30.10
2018-07-27T15:11:47.821Z,30.40
2018-07-27T15:14:16.560Z,30.40
2018-07-27T15:16:45.825Z,30.50
2018-07-27T15:19:14.547Z,30.40
2018-07-27T15:21:43.233Z,30.40
2018-07-27T15:24:11.898Z,30.00
2018-07-27T15:26:41.594Z,30.30
2018-07-27T15:29:10.303Z,30.70
2018-07-27T15:31:40.094Z,30.60
2018-07-27T15:34:08.755Z,30.60
2018-07-27T15:36:37.554Z,30.40
2018-07-27T15:39:08.008Z,30.10
2018-07-27T15:41:37.066Z,30.10
2018-07-27T15:44:06.122Z,30.20
2018-07-27T15:46:34.896Z,30.50
2018-07-27T15:49:03.674Z,30.60
2018-07-27T15:51:32.533Z,30.60
2018-07-27T15:54:01.268Z,30.90
2018-07-27T15:56:30.119Z,30.80
2018-07-27T15:58:58.910Z,30.50
2018-07-27T16:01:27.604Z,30.30
2018-07-27T16:03:56.340Z,30.40
2018-07-27T16:06:25.055Z,30.40
2018-07-27T16:08:53.790Z,30.30
2018-07-27T16:11:22.554Z,30.20
2018-07-27T16:13:51.364Z,30.10
2018-07-27T16:16:20.154Z,30.40
2018-07-27T16:18:48.889Z,30.50
2018-07-27T16:21:18.767Z,30.60
2018-07-27T16:23:47.928Z,30.80
2018-07-27T16:26:16.766Z,31.00
2018-07-27T16:28:45.460Z,31.00
2018-07-27T16:31:14.291Z,31.00
2018-07-27T16:33:42.951Z,31.10
2018-07-27T16:36:11.727Z,31.40
2018-07-27T16:38:40.480Z,31.20
2018-07-27T16:41:09.180Z,31.30
2018-07-27T16:43:37.908Z,31.10
2018-07-27T16:46:07.624Z,31.30
2018-07-27T16:48:38.682Z,31.10
2018-07-27T16:51:07.454Z,31.10
2018-07-27T16:53:36.892Z,30.90
2018-07-27T16:56:05.803Z,30.70
2018-07-27T16:58:34.584Z,30.60
2018-07-27T17:01:03.265Z,30.50
2018-07-27T17:03:32.048Z,30.50
2018-07-27T17:06:00.814Z,30.70
2018-07-27T17:08:29.567Z,30.70
2018-07-27T17:10:59.316Z,30.70
2018-07-27T17:13:29.137Z,30.60
2018-07-27T17:15:58.024Z,30.60
2018-07-27T17:18:26.879Z,30.50
2018-07-27T17:20:56.574Z,30.50
2018-07-27T17:23:25.404Z,30.80
2018-07-27T17:25:54.209Z,30.90
2018-07-27T17:28:22.930Z,31.00
2018-07-27T17:30:51.675Z,31.10
2018-07-27T17:33:21.429Z,31.10
2018-07-27T17:35:50.212Z,31.10
2018-07-27T17:38:18.896Z,31.30
2018-07-27T17:40:47.664Z,31.40
2018-07-27T17:43:17.377Z,31.10
2018-07-27T17:45:47.178Z,30.70
2018-07-27T17:48:15.919Z,30.30
2018-07-27T17:50:44.623Z,30.00
2018-07-27T17:53:13.339Z,29.80
2018-07-27T17:55:41.999Z,29.80
2018-07-27T17:58:10.759Z,29.90
2018-07-27T18:00:39.533Z,30.20
2018-07-27T18:03:08.246Z,30.30
2018-07-27T18:05:36.990Z,30.40
2018-07-27T18:08:05.728Z,30.40
2018-07-27T18:10:34.390Z,30.40
2018-07-27T18:13:03.138Z,30.00
2018-07-27T18:15:31.902Z,29.60
2018-07-27T18:18:00.606Z,29.10
2018-07-27T18:20:29.321Z,28.70
2018-07-27T18:22:57.991Z,28.50
2018-07-27T18:25:26.803Z,28.20
2018-07-27T18:27:55.497Z,27.80
2018-07-27T18:30:24.273Z,27.40
2018-07-27T18:32:52.973Z,27.20
2018-07-27T18:35:21.761Z,27.00
2018-07-27T18:37:50.443Z,26.80
2018-07-27T18:40:19.215Z,26.60
2018-07-27T18:42:48.898Z,26.50
2018-07-27T18:45:17.733Z,26.30
2018-07-27T18:47:46.427Z,26.10
2018-07-27T18:50:15.178Z,25.90
2018-07-27T18:52:43.844Z,25.70
2018-07-27T18:55:12.640Z,25.40
2018-07-27T18:57:41.358Z,25.20
2018-07-27T19:00:10.391Z,25.00
2018-07-27T19:02:40.129Z,24.80
2018-07-27T19:05:08.893Z,24.70
2018-07-27T19:07:37.708Z,24.60
2018-07-27T19:10:06.977Z,24.60
2018-07-27T19:12:35.744Z,24.40
2018-07-27T19:15:05.408Z,24.30
2018-07-27T19:17:34.044Z,24.10
2018-07-27T19:20:03.342Z,24.00
2018-07-27T19:22:32.107Z,24.00
2018-07-27T19:25:00.913Z,24.00
2018-07-27T19:27:29.975Z,24.10
2018-07-27T19:29:58.795Z,24.10
2018-07-27T19:32:27.626Z,24.00
2018-07-27T19:34:56.358Z,24.00
2018-07-27T19:37:24.971Z,24.10
2018-07-27T19:39:53.747Z,24.10
2018-07-27T19:44:50.759Z,24.00
2018-07-27T19:47:19.543Z,24.00
2018-07-27T19:49:49.298Z,23.80
2018-07-27T19:52:18.019Z,23.70
2018-07-27T19:54:46.666Z,23.50
2018-07-27T19:57:15.435Z,23.60
2018-07-27T19:59:44.106Z,23.50
2018-07-27T20:02:12.797Z,23.30
2018-07-27T20:04:41.551Z,23.20
2018-07-27T20:07:10.323Z,23.10
2018-07-27T20:09:38.942Z,23.10
2018-07-27T20:12:07.694Z,23.10
2018-07-27T20:14:36.402Z,23.10
2018-07-27T20:17:05.074Z,23.10
2018-07-27T20:19:34.012Z,23.10
2018-07-27T20:22:02.784Z,23.00
2018-07-27T20:24:31.463Z,23.00
2018-07-27T20:27:00.083Z,23.00
2018-07-27T20:29:28.859Z,22.90
2018-07-27T20:31:58.706Z,22.80
2018-07-27T20:34:27.390Z,22.80
2018-07-27T20:36:56.120Z,22.60
2018-07-27T20:39:24.792Z,22.60
2018-07-27T20:41:54.143Z,22.50
2018-07-27T20:44:22.845Z,22.50
2018-07-27T20:46:51.519Z,22.40
2018-07-27T20:49:20.880Z,22.30
2018-07-27T20:51:49.655Z,22.20
2018-07-27T20:54:18.308Z,22.10
2018-07-27T20:56:47.990Z,22.10
2018-07-27T20:59:16.658Z,22.00
2018-07-27T21:01:46.034Z,22.00
2018-07-27T21:04:14.715Z,22.10
2018-07-27T21:06:43.415Z,22.20
2018-07-27T21:09:12.736Z,22.30
2018-07-27T21:11:42.263Z,22.30
2018-07-27T21:14:11.140Z,22.30
2018-07-27T21:16:40.149Z,22.30
2018-07-27T21:19:10.532Z,22.30
2018-07-27T21:21:39.363Z,22.20
2018-07-27T21:24:08.761Z,22.20
2018-07-27T21:26:37.504Z,22.10
2018-07-27T21:29:06.246Z,22.10
2018-07-27T21:31:35.003Z,22.10
2018-07-27T21:34:03.757Z,22.10
2018-07-27T21:36:32.567Z,22.10
2018-07-27T21:39:01.553Z,22.00
2018-07-27T21:41:30.383Z,21.90
2018-07-27T21:43:59.115Z,21.90
2018-07-27T21:46:27.967Z,21.80
2018-07-27T21:48:56.613Z,21.60
2018-07-27T21:51:26.419Z,21.60
2018-07-27T21:53:55.225Z,21.70
2018-07-27T21:56:23.956Z,21.80
2018-07-27T21:58:52.803Z,21.80
2018-07-27T22:01:21.523Z,21.90
2018-07-27T22:03:50.264Z,21.90
2018-07-27T22:06:19.085Z,21.90
2018-07-27T22:08:48.953Z,21.90
2018-07-27T22:11:19.387Z,22.00
2018-07-27T22:13:48.092Z,22.10
2018-07-27T22:16:16.934Z,22.00
2018-07-27T22:21:13.934Z,21.80
2018-07-27T22:23:42.700Z,21.70
2018-07-27T22:26:11.343Z,21.70
2018-07-27T22:28:40.103Z,21.70
2018-07-27T22:31:08.853Z,21.60
2018-07-27T22:33:37.580Z,21.60
2018-07-27T22:36:06.313Z,21.60
2018-07-27T22:38:34.942Z,21.60
2018-07-27T22:41:03.681Z,21.50
2018-07-27T22:43:32.373Z,21.40
2018-07-27T22:46:01.138Z,21.40
2018-07-27T22:48:29.820Z,21.40
2018-07-27T22:55:55.211Z,21.30
2018-07-27T22:58:23.915Z,21.20
2018-07-27T23:00:52.566Z,21.30
2018-07-27T23:03:21.276Z,21.20
2018-07-27T23:05:50.087Z,21.30
2018-07-27T23:08:18.797Z,21.30
2018-07-27T23:10:47.599Z,21.30
2018-07-27T23:13:16.346Z,21.50
2018-07-27T23:15:45.177Z,21.40
2018-07-27T23:18:13.973Z,21.40
2018-07-27T23:20:42.604Z,21.30
2018-07-27T23:23:11.286Z,21.30
2018-07-27T23:25:42.021Z,21.20
2018-07-27T23:30:40.096Z,21.10
2018-07-27T23:33:09.948Z,21.10
2018-07-27T23:35:38.761Z,21.00
2018-07-27T23:38:07.480Z,21.00
2018-07-27T23:40:36.793Z,21.00
2018-07-27T23:43:05.773Z,21.00
2018-07-27T23:45:36.499Z,21.00
2018-07-27T23:48:05.276Z,21.00
2018-07-27T23:50:34.167Z,21.00
2018-07-27T23:53:02.916Z,21.00
2018-07-27T23:55:31.676Z,21.00
2018-07-27T23:58:00.458Z,21.00
